sensor_id;sensor_type;location;lat;lon;timestamp;P1;durP1;ratioP1;P2;durP2;ratioP2
43146;SDS011;28752;48.266;7.402;2023-05-10T00:01:24;0.97;;;0.40;;
43146;SDS011;28752;48.266;7.402;2023-05-10T00:03:50;0.90;;;0.40;;
43146;SDS011;28752;48.266;7.402;2023-05-10T00:06:16;0.40;;;0.20;;
43146;SDS011;28752;48.266;7.402;2023-05-10T00:08:41;1.42;;;0.60;;
43146;SDS011;28752;48.266;7.402;2023-05-10T00:11:07;1.37;;;0.37;;
43146;SDS011;28752;48.266;7.402;2023-05-10T00:13:32;1.03;;;0.40;;
43146;SDS011;28752;48.266;7.402;2023-05-10T00:15:58;0.70;;;0.40;;
43146;SDS011;28752;48.266;7.402;2023-05-10T00:18:23;0.50;;;0.30;;
43146;SDS011;28752;48.266;7.402;2023-05-10T00:20:49;0.37;;;0.30;;
43146;SDS011;28752;48.266;7.402;2023-05-10T00:23:14;0.35;;;0.30;;
43146;SDS011;28752;48.266;7.402;2023-05-10T00:25:40;1.45;;;0.30;;
43146;SDS011;28752;48.266;7.402;2023-05-10T00:28:05;1.30;;;0.50;;
43146;SDS011;28752;48.266;7.402;2023-05-10T00:30:30;1.80;;;0.40;;
43146;SDS011;28752;48.266;7.402;2023-05-10T00:32:56;0.40;;;0.30;;
43146;SDS011;28752;48.266;7.402;2023-05-10T00:35:22;0.83;;;0.30;;
43146;SDS011;28752;48.266;7.402;2023-05-10T00:37:47;0.50;;;0.40;;
43146;SDS011;28752;48.266;7.402;2023-05-10T00:40:13;0.30;;;0.30;;
43146;SDS011;28752;48.266;7.402;2023-05-10T00:42:39;0.45;;;0.40;;
43146;SDS011;28752;48.266;7.402;2023-05-10T00:45:04;0.47;;;0.40;;
43146;SDS011;28752;48.266;7.402;2023-05-10T00:52:21;1.00;;;0.50;;
43146;SDS011;28752;48.266;7.402;2023-05-10T00:54:49;1.80;;;0.63;;
43146;SDS011;28752;48.266;7.402;2023-05-10T00:57:15;0.93;;;0.55;;
43146;SDS011;28752;48.266;7.402;2023-05-10T00:59:40;0.90;;;0.43;;
43146;SDS011;28752;48.266;7.402;2023-05-10T01:02:06;0.77;;;0.57;;
43146;SDS011;28752;48.266;7.402;2023-05-10T01:04:31;1.43;;;0.63;;
43146;SDS011;28752;48.266;7.402;2023-05-10T01:06:58;2.65;;;0.85;;
43146;SDS011;28752;48.266;7.402;2023-05-10T01:09:23;0.90;;;0.50;;
43146;SDS011;28752;48.266;7.402;2023-05-10T01:11:51;2.97;;;0.77;;
43146;SDS011;28752;48.266;7.402;2023-05-10T01:14:17;0.40;;;0.40;;
43146;SDS011;28752;48.266;7.402;2023-05-10T01:16:44;1.45;;;0.60;;
43146;SDS011;28752;48.266;7.402;2023-05-10T01:19:17;2.83;;;0.85;;
43146;SDS011;28752;48.266;7.402;2023-05-10T01:33:18;0.80;;;0.60;;
43146;SDS011;28752;48.266;7.402;2023-05-10T01:35:47;3.97;;;0.57;;
43146;SDS011;28752;48.266;7.402;2023-05-10T01:38:41;1.00;;;0.50;;
43146;SDS011;28752;48.266;7.402;2023-05-10T01:41:19;1.48;;;0.73;;
43146;SDS011;28752;48.266;7.402;2023-05-10T01:43:57;2.40;;;0.82;;
43146;SDS011;28752;48.266;7.402;2023-05-10T01:46:37;1.85;;;0.65;;
43146;SDS011;28752;48.266;7.402;2023-05-10T01:49:08;2.17;;;0.70;;
43146;SDS011;28752;48.266;7.402;2023-05-10T01:51:39;2.00;;;0.82;;
43146;SDS011;28752;48.266;7.402;2023-05-10T01:54:17;2.67;;;0.70;;
43146;SDS011;28752;48.266;7.402;2023-05-10T01:56:45;1.65;;;0.80;;
43146;SDS011;28752;48.266;7.402;2023-05-10T01:59:25;2.15;;;0.90;;
43146;SDS011;28752;48.266;7.402;2023-05-10T02:01:54;3.40;;;0.82;;
43146;SDS011;28752;48.266;7.402;2023-05-10T02:04:23;1.30;;;0.60;;
43146;SDS011;28752;48.266;7.402;2023-05-10T02:06:50;1.85;;;0.82;;
43146;SDS011;28752;48.266;7.402;2023-05-10T02:09:18;1.90;;;1.00;;
43146;SDS011;28752;48.266;7.402;2023-05-10T02:11:45;1.20;;;0.65;;
43146;SDS011;28752;48.266;7.402;2023-05-10T02:14:13;2.08;;;0.98;;
43146;SDS011;28752;48.266;7.402;2023-05-10T02:16:40;1.63;;;0.80;;
43146;SDS011;28752;48.266;7.402;2023-05-10T02:19:07;2.88;;;1.08;;
43146;SDS011;28752;48.266;7.402;2023-05-10T02:21:34;1.52;;;0.70;;
43146;SDS011;28752;48.266;7.402;2023-05-10T02:24:01;1.77;;;0.77;;
43146;SDS011;28752;48.266;7.402;2023-05-10T02:26:28;1.67;;;0.80;;
43146;SDS011;28752;48.266;7.402;2023-05-10T02:28:56;1.77;;;0.85;;
43146;SDS011;28752;48.266;7.402;2023-05-10T02:31:23;1.38;;;0.60;;
43146;SDS011;28752;48.266;7.402;2023-05-10T02:33:50;2.15;;;0.80;;
43146;SDS011;28752;48.266;7.402;2023-05-10T02:41:08;1.38;;;0.70;;
43146;SDS011;28752;48.266;7.402;2023-05-10T02:43:36;1.40;;;0.60;;
43146;SDS011;28752;48.266;7.402;2023-05-10T02:46:04;1.08;;;0.60;;
43146;SDS011;28752;48.266;7.402;2023-05-10T02:48:30;2.58;;;1.10;;
43146;SDS011;28752;48.266;7.402;2023-05-10T02:50:56;1.90;;;0.73;;
43146;SDS011;28752;48.266;7.402;2023-05-10T02:53:31;1.38;;;0.70;;
43146;SDS011;28752;48.266;7.402;2023-05-10T02:55:58;1.23;;;0.85;;
43146;SDS011;28752;48.266;7.402;2023-05-10T02:58:26;1.58;;;0.75;;
43146;SDS011;28752;48.266;7.402;2023-05-10T03:00:52;1.27;;;0.63;;
43146;SDS011;28752;48.266;7.402;2023-05-10T03:03:17;1.33;;;0.85;;
43146;SDS011;28752;48.266;7.402;2023-05-10T03:05:42;1.60;;;0.80;;
43146;SDS011;28752;48.266;7.402;2023-05-10T03:08:08;0.83;;;0.50;;
43146;SDS011;28752;48.266;7.402;2023-05-10T03:10:33;1.15;;;0.40;;
43146;SDS011;28752;48.266;7.402;2023-05-10T03:18:23;2.38;;;0.70;;
43146;SDS011;28752;48.266;7.402;2023-05-10T03:20:59;0.65;;;0.60;;
43146;SDS011;28752;48.266;7.402;2023-05-10T03:25:59;1.40;;;0.70;;
43146;SDS011;28752;48.266;7.402;2023-05-10T03:30:54;2.75;;;0.50;;
43146;SDS011;28752;48.266;7.402;2023-05-10T03:33:21;1.08;;;0.50;;
43146;SDS011;28752;48.266;7.402;2023-05-10T03:35:47;0.57;;;0.40;;
43146;SDS011;28752;48.266;7.402;2023-05-10T03:43:04;0.90;;;0.50;;
43146;SDS011;28752;48.266;7.402;2023-05-10T03:45:29;1.55;;;0.75;;
43146;SDS011;28752;48.266;7.402;2023-05-10T03:47:55;2.25;;;0.73;;
43146;SDS011;28752;48.266;7.402;2023-05-10T03:50:22;1.17;;;0.50;;
43146;SDS011;28752;48.266;7.402;2023-05-10T03:52:47;1.80;;;0.83;;
43146;SDS011;28752;48.266;7.402;2023-05-10T03:55:13;0.70;;;0.50;;
43146;SDS011;28752;48.266;7.402;2023-05-10T03:57:38;2.67;;;0.67;;
43146;SDS011;28752;48.266;7.402;2023-05-10T04:00:04;0.90;;;0.60;;
43146;SDS011;28752;48.266;7.402;2023-05-10T04:02:29;0.88;;;0.50;;
43146;SDS011;28752;48.266;7.402;2023-05-10T04:04:55;1.03;;;0.73;;
43146;SDS011;28752;48.266;7.402;2023-05-10T04:07:21;1.88;;;0.70;;
43146;SDS011;28752;48.266;7.402;2023-05-10T04:09:46;1.02;;;0.60;;
43146;SDS011;28752;48.266;7.402;2023-05-10T04:12:12;0.87;;;0.50;;
43146;SDS011;28752;48.266;7.402;2023-05-10T04:14:37;1.17;;;0.67;;
43146;SDS011;28752;48.266;7.402;2023-05-10T04:17:02;2.43;;;0.77;;
43146;SDS011;28752;48.266;7.402;2023-05-10T04:19:31;0.97;;;0.50;;
43146;SDS011;28752;48.266;7.402;2023-05-10T04:21:56;1.00;;;0.57;;
43146;SDS011;28752;48.266;7.402;2023-05-10T04:24:22;1.40;;;0.60;;
43146;SDS011;28752;48.266;7.402;2023-05-10T04:26:48;1.37;;;0.70;;
43146;SDS011;28752;48.266;7.402;2023-05-10T04:29:13;1.13;;;0.77;;
43146;SDS011;28752;48.266;7.402;2023-05-10T04:31:38;1.87;;;0.60;;
43146;SDS011;28752;48.266;7.402;2023-05-10T04:34:04;2.00;;;0.63;;
43146;SDS011;28752;48.266;7.402;2023-05-10T04:36:30;1.15;;;0.60;;
43146;SDS011;28752;48.266;7.402;2023-05-10T04:38:55;1.30;;;0.60;;
43146;SDS011;28752;48.266;7.402;2023-05-10T04:41:20;1.67;;;0.77;;
43146;SDS011;28752;48.266;7.402;2023-05-10T04:43:46;2.43;;;0.80;;
43146;SDS011;28752;48.266;7.402;2023-05-10T04:46:14;0.77;;;0.55;;
43146;SDS011;28752;48.266;7.402;2023-05-10T04:48:39;0.70;;;0.33;;
43146;SDS011;28752;48.266;7.402;2023-05-10T04:51:04;0.87;;;0.40;;
43146;SDS011;28752;48.266;7.402;2023-05-10T04:53:31;1.00;;;0.50;;
43146;SDS011;28752;48.266;7.402;2023-05-10T04:55:57;0.88;;;0.30;;
43146;SDS011;28752;48.266;7.402;2023-05-10T04:58:22;0.63;;;0.63;;
43146;SDS011;28752;48.266;7.402;2023-05-10T05:00:47;0.70;;;0.30;;
43146;SDS011;28752;48.266;7.402;2023-05-10T05:03:13;0.53;;;0.30;;
43146;SDS011;28752;48.266;7.402;2023-05-10T05:05:38;0.60;;;0.20;;
43146;SDS011;28752;48.266;7.402;2023-05-10T05:08:04;0.30;;;0.20;;
43146;SDS011;28752;48.266;7.402;2023-05-10T05:10:29;0.70;;;0.30;;
43146;SDS011;28752;48.266;7.402;2023-05-10T05:12:55;1.20;;;0.60;;
43146;SDS011;28752;48.266;7.402;2023-05-10T05:15:20;0.50;;;0.20;;
43146;SDS011;28752;48.266;7.402;2023-05-10T05:17:46;0.83;;;0.30;;
43146;SDS011;28752;48.266;7.402;2023-05-10T05:20:11;0.37;;;0.30;;
43146;SDS011;28752;48.266;7.402;2023-05-10T05:25:03;1.17;;;0.47;;
43146;SDS011;28752;48.266;7.402;2023-05-10T05:27:29;1.85;;;0.22;;
43146;SDS011;28752;48.266;7.402;2023-05-10T05:29:55;0.30;;;0.20;;
43146;SDS011;28752;48.266;7.402;2023-05-10T05:32:21;0.38;;;0.20;;
43146;SDS011;28752;48.266;7.402;2023-05-10T05:34:47;1.67;;;0.52;;
43146;SDS011;28752;48.266;7.402;2023-05-10T05:37:16;1.27;;;0.70;;
43146;SDS011;28752;48.266;7.402;2023-05-10T05:39:43;2.33;;;1.02;;
43146;SDS011;28752;48.266;7.402;2023-05-10T05:42:09;1.10;;;0.60;;
43146;SDS011;28752;48.266;7.402;2023-05-10T05:44:35;1.20;;;0.60;;
43146;SDS011;28752;48.266;7.402;2023-05-10T05:47:00;1.17;;;0.70;;
43146;SDS011;28752;48.266;7.402;2023-05-10T05:49:26;1.60;;;0.90;;
43146;SDS011;28752;48.266;7.402;2023-05-10T05:51:51;2.43;;;1.30;;
43146;SDS011;28752;48.266;7.402;2023-05-10T05:54:16;2.67;;;1.17;;
43146;SDS011;28752;48.266;7.402;2023-05-10T05:56:42;2.87;;;1.00;;
43146;SDS011;28752;48.266;7.402;2023-05-10T05:59:07;2.53;;;1.00;;
43146;SDS011;28752;48.266;7.402;2023-05-10T06:01:33;3.77;;;1.10;;
43146;SDS011;28752;48.266;7.402;2023-05-10T06:03:58;1.92;;;1.00;;
43146;SDS011;28752;48.266;7.402;2023-05-10T06:06:23;3.30;;;1.03;;
43146;SDS011;28752;48.266;7.402;2023-05-10T06:08:49;4.40;;;1.40;;
43146;SDS011;28752;48.266;7.402;2023-05-10T06:11:14;2.47;;;1.20;;
43146;SDS011;28752;48.266;7.402;2023-05-10T06:13:39;2.43;;;1.27;;
43146;SDS011;28752;48.266;7.402;2023-05-10T06:16:05;1.07;;;0.60;;
43146;SDS011;28752;48.266;7.402;2023-05-10T06:18:30;1.40;;;0.80;;
43146;SDS011;28752;48.266;7.402;2023-05-10T06:20:56;1.27;;;0.68;;
43146;SDS011;28752;48.266;7.402;2023-05-10T06:23:22;1.48;;;1.00;;
43146;SDS011;28752;48.266;7.402;2023-05-10T06:25:47;3.10;;;1.13;;
43146;SDS011;28752;48.266;7.402;2023-05-10T06:28:13;1.83;;;0.90;;
43146;SDS011;28752;48.266;7.402;2023-05-10T06:30:38;1.57;;;0.90;;
43146;SDS011;28752;48.266;7.402;2023-05-10T06:33:03;1.37;;;0.73;;
43146;SDS011;28752;48.266;7.402;2023-05-10T06:35:29;1.98;;;0.90;;
43146;SDS011;28752;48.266;7.402;2023-05-10T06:37:56;1.55;;;0.73;;
43146;SDS011;28752;48.266;7.402;2023-05-10T06:40:21;1.07;;;0.70;;
43146;SDS011;28752;48.266;7.402;2023-05-10T06:42:47;1.47;;;0.70;;
43146;SDS011;28752;48.266;7.402;2023-05-10T06:47:39;1.05;;;0.57;;
43146;SDS011;28752;48.266;7.402;2023-05-10T06:50:05;0.82;;;0.50;;
43146;SDS011;28752;48.266;7.402;2023-05-10T06:52:31;2.00;;;0.70;;
43146;SDS011;28752;48.266;7.402;2023-05-10T06:54:57;1.97;;;0.90;;
43146;SDS011;28752;48.266;7.402;2023-05-10T06:57:22;1.33;;;0.47;;
43146;SDS011;28752;48.266;7.402;2023-05-10T06:59:47;1.13;;;0.40;;
43146;SDS011;28752;48.266;7.402;2023-05-10T07:02:13;1.10;;;0.50;;
43146;SDS011;28752;48.266;7.402;2023-05-10T07:04:39;0.55;;;0.38;;
43146;SDS011;28752;48.266;7.402;2023-05-10T07:07:05;1.00;;;0.40;;
43146;SDS011;28752;48.266;7.402;2023-05-10T07:09:30;0.83;;;0.37;;
43146;SDS011;28752;48.266;7.402;2023-05-10T07:11:55;0.30;;;0.30;;
43146;SDS011;28752;48.266;7.402;2023-05-10T07:14:22;1.30;;;0.52;;
43146;SDS011;28752;48.266;7.402;2023-05-10T07:16:47;1.10;;;0.40;;
43146;SDS011;28752;48.266;7.402;2023-05-10T07:19:12;1.50;;;0.47;;
43146;SDS011;28752;48.266;7.402;2023-05-10T07:21:38;0.87;;;0.40;;
43146;SDS011;28752;48.266;7.402;2023-05-10T07:24:05;0.63;;;0.40;;
43146;SDS011;28752;48.266;7.402;2023-05-10T07:26:30;0.95;;;0.25;;
43146;SDS011;28752;48.266;7.402;2023-05-10T07:28:56;0.25;;;0.25;;
43146;SDS011;28752;48.266;7.402;2023-05-10T07:33:47;0.73;;;0.40;;
43146;SDS011;28752;48.266;7.402;2023-05-10T07:41:03;1.77;;;1.17;;
43146;SDS011;28752;48.266;7.402;2023-05-10T07:45:53;1.57;;;0.40;;
43146;SDS011;28752;48.266;7.402;2023-05-10T07:48:19;0.95;;;0.22;;
43146;SDS011;28752;48.266;7.402;2023-05-10T07:50:44;1.20;;;0.45;;
43146;SDS011;28752;48.266;7.402;2023-05-10T07:53:10;1.75;;;0.45;;
43146;SDS011;28752;48.266;7.402;2023-05-10T07:55:35;0.73;;;0.52;;
43146;SDS011;28752;48.266;7.402;2023-05-10T07:58:00;0.52;;;0.30;;
43146;SDS011;28752;48.266;7.402;2023-05-10T08:00:26;0.73;;;0.45;;
43146;SDS011;28752;48.266;7.402;2023-05-10T08:02:51;3.23;;;0.40;;
43146;SDS011;28752;48.266;7.402;2023-05-10T08:05:17;0.95;;;0.30;;
43146;SDS011;28752;48.266;7.402;2023-05-10T08:07:43;0.63;;;0.20;;
43146;SDS011;28752;48.266;7.402;2023-05-10T08:10:09;0.70;;;0.20;;
43146;SDS011;28752;48.266;7.402;2023-05-10T08:12:36;0.75;;;0.40;;
43146;SDS011;28752;48.266;7.402;2023-05-10T08:15:02;1.00;;;0.40;;
43146;SDS011;28752;48.266;7.402;2023-05-10T08:19:53;2.25;;;0.68;;
43146;SDS011;28752;48.266;7.402;2023-05-10T08:22:18;1.30;;;0.40;;
43146;SDS011;28752;48.266;7.402;2023-05-10T08:24:44;1.25;;;0.40;;
43146;SDS011;28752;48.266;7.402;2023-05-10T08:27:09;1.20;;;0.30;;
43146;SDS011;28752;48.266;7.402;2023-05-10T08:29:34;0.77;;;0.30;;
43146;SDS011;28752;48.266;7.402;2023-05-10T08:32:00;1.40;;;0.47;;
43146;SDS011;28752;48.266;7.402;2023-05-10T08:34:26;0.95;;;0.40;;
43146;SDS011;28752;48.266;7.402;2023-05-10T08:36:51;1.17;;;0.30;;
43146;SDS011;28752;48.266;7.402;2023-05-10T08:39:17;2.00;;;0.50;;
43146;SDS011;28752;48.266;7.402;2023-05-10T08:41:42;1.03;;;0.60;;
43146;SDS011;28752;48.266;7.402;2023-05-10T08:44:09;0.95;;;0.50;;
43146;SDS011;28752;48.266;7.402;2023-05-10T08:46:35;0.22;;;0.20;;
43146;SDS011;28752;48.266;7.402;2023-05-10T08:49:04;1.13;;;0.40;;
43146;SDS011;28752;48.266;7.402;2023-05-10T08:51:34;1.17;;;0.40;;
43146;SDS011;28752;48.266;7.402;2023-05-10T08:54:02;0.57;;;0.20;;
43146;SDS011;28752;48.266;7.402;2023-05-10T08:56:28;0.60;;;0.28;;
43146;SDS011;28752;48.266;7.402;2023-05-10T08:58:54;0.20;;;0.20;;
43146;SDS011;28752;48.266;7.402;2023-05-10T09:01:20;1.45;;;0.40;;
43146;SDS011;28752;48.266;7.402;2023-05-10T09:06:12;2.03;;;0.40;;
43146;SDS011;28752;48.266;7.402;2023-05-10T09:08:38;0.95;;;0.30;;
43146;SDS011;28752;48.266;7.402;2023-05-10T09:11:05;1.35;;;0.45;;
43146;SDS011;28752;48.266;7.402;2023-05-10T09:13:30;0.52;;;0.20;;
43146;SDS011;28752;48.266;7.402;2023-05-10T09:15:56;0.70;;;0.30;;
43146;SDS011;28752;48.266;7.402;2023-05-10T09:18:22;0.40;;;0.10;;
43146;SDS011;28752;48.266;7.402;2023-05-10T09:20:48;1.07;;;0.40;;
43146;SDS011;28752;48.266;7.402;2023-05-10T09:23:14;2.10;;;0.70;;
43146;SDS011;28752;48.266;7.402;2023-05-10T09:25:40;0.60;;;0.30;;
43146;SDS011;28752;48.266;7.402;2023-05-10T09:28:07;1.13;;;0.30;;
43146;SDS011;28752;48.266;7.402;2023-05-10T09:30:33;0.47;;;0.28;;
43146;SDS011;28752;48.266;7.402;2023-05-10T09:33:00;1.48;;;0.30;;
43146;SDS011;28752;48.266;7.402;2023-05-10T09:35:26;1.10;;;0.13;;
43146;SDS011;28752;48.266;7.402;2023-05-10T09:37:54;2.08;;;0.30;;
43146;SDS011;28752;48.266;7.402;2023-05-10T09:40:21;1.70;;;0.50;;
43146;SDS011;28752;48.266;7.402;2023-05-10T09:42:57;0.98;;;0.40;;
43146;SDS011;28752;48.266;7.402;2023-05-10T09:45:28;0.82;;;0.30;;
43146;SDS011;28752;48.266;7.402;2023-05-10T09:47:55;0.30;;;0.20;;
43146;SDS011;28752;48.266;7.402;2023-05-10T09:50:21;0.80;;;0.40;;
43146;SDS011;28752;48.266;7.402;2023-05-10T09:55:16;0.70;;;0.30;;
43146;SDS011;28752;48.266;7.402;2023-05-10T09:57:43;0.80;;;0.30;;
43146;SDS011;28752;48.266;7.402;2023-05-10T10:00:09;1.77;;;0.22;;
43146;SDS011;28752;48.266;7.402;2023-05-10T10:02:35;1.80;;;0.50;;
43146;SDS011;28752;48.266;7.402;2023-05-10T10:05:01;1.00;;;0.35;;
43146;SDS011;28752;48.266;7.402;2023-05-10T10:07:28;0.80;;;0.47;;
43146;SDS011;28752;48.266;7.402;2023-05-10T10:09:54;0.80;;;0.45;;
43146;SDS011;28752;48.266;7.402;2023-05-10T10:12:20;0.88;;;0.40;;
43146;SDS011;28752;48.266;7.402;2023-05-10T10:14:46;0.93;;;0.30;;
43146;SDS011;28752;48.266;7.402;2023-05-10T10:17:13;0.40;;;0.20;;
43146;SDS011;28752;48.266;7.402;2023-05-10T10:19:38;0.77;;;0.30;;
43146;SDS011;28752;48.266;7.402;2023-05-10T10:22:04;1.00;;;0.30;;
43146;SDS011;28752;48.266;7.402;2023-05-10T10:24:30;0.60;;;0.32;;
43146;SDS011;28752;48.266;7.402;2023-05-10T10:26:58;2.20;;;0.30;;
43146;SDS011;28752;48.266;7.402;2023-05-10T10:29:35;1.48;;;0.28;;
43146;SDS011;28752;48.266;7.402;2023-05-10T10:32:12;0.22;;;0.20;;
43146;SDS011;28752;48.266;7.402;2023-05-10T10:34:46;1.08;;;0.40;;
43146;SDS011;28752;48.266;7.402;2023-05-10T10:37:12;1.10;;;0.50;;
43146;SDS011;28752;48.266;7.402;2023-05-10T10:39:38;1.08;;;0.38;;
43146;SDS011;28752;48.266;7.402;2023-05-10T10:42:03;0.83;;;0.40;;
43146;SDS011;28752;48.266;7.402;2023-05-10T10:57:25;0.70;;;0.22;;
43146;SDS011;28752;48.266;7.402;2023-05-10T11:02:32;0.38;;;0.20;;
43146;SDS011;28752;48.266;7.402;2023-05-10T11:08:06;0.75;;;0.30;;
43146;SDS011;28752;48.266;7.402;2023-05-10T11:10:33;0.68;;;0.40;;
43146;SDS011;28752;48.266;7.402;2023-05-10T11:13:04;0.73;;;0.30;;
43146;SDS011;28752;48.266;7.402;2023-05-10T11:15:37;3.03;;;0.68;;
43146;SDS011;28752;48.266;7.402;2023-05-10T11:20:43;0.73;;;0.30;;
43146;SDS011;28752;48.266;7.402;2023-05-10T11:23:14;0.38;;;0.20;;
43146;SDS011;28752;48.266;7.402;2023-05-10T11:25:44;2.33;;;0.30;;
43146;SDS011;28752;48.266;7.402;2023-05-10T11:28:13;1.38;;;0.40;;
43146;SDS011;28752;48.266;7.402;2023-05-10T11:30:40;2.33;;;0.40;;
43146;SDS011;28752;48.266;7.402;2023-05-10T11:33:07;0.32;;;0.30;;
43146;SDS011;28752;48.266;7.402;2023-05-10T11:35:40;0.75;;;0.15;;
43146;SDS011;28752;48.266;7.402;2023-05-10T11:38:09;0.10;;;0.10;;
43146;SDS011;28752;48.266;7.402;2023-05-10T11:40:36;4.22;;;1.08;;
43146;SDS011;28752;48.266;7.402;2023-05-10T11:43:03;3.88;;;0.88;;
43146;SDS011;28752;48.266;7.402;2023-05-10T11:45:29;0.13;;;0.13;;
43146;SDS011;28752;48.266;7.402;2023-05-10T11:47:57;0.20;;;0.13;;
43146;SDS011;28752;48.266;7.402;2023-05-10T11:50:23;0.10;;;0.10;;
43146;SDS011;28752;48.266;7.402;2023-05-10T11:52:52;0.25;;;0.10;;
43146;SDS011;28752;48.266;7.402;2023-05-10T11:55:18;0.35;;;0.20;;
43146;SDS011;28752;48.266;7.402;2023-05-10T11:57:44;0.43;;;0.20;;
43146;SDS011;28752;48.266;7.402;2023-05-10T12:00:11;1.00;;;0.20;;
43146;SDS011;28752;48.266;7.402;2023-05-10T12:02:37;0.20;;;0.17;;
43146;SDS011;28752;48.266;7.402;2023-05-10T12:05:03;0.47;;;0.10;;
43146;SDS011;28752;48.266;7.402;2023-05-10T12:07:30;1.23;;;0.10;;
43146;SDS011;28752;48.266;7.402;2023-05-10T12:10:02;0.10;;;0.10;;
43146;SDS011;28752;48.266;7.402;2023-05-10T12:12:38;0.10;;;0.10;;
43146;SDS011;28752;48.266;7.402;2023-05-10T12:15:05;0.17;;;0.10;;
43146;SDS011;28752;48.266;7.402;2023-05-10T12:17:36;0.80;;;0.13;;
43146;SDS011;28752;48.266;7.402;2023-05-10T12:22:48;0.10;;;0.10;;
43146;SDS011;28752;48.266;7.402;2023-05-10T12:25:15;1.02;;;0.10;;
43146;SDS011;28752;48.266;7.402;2023-05-10T12:27:46;0.10;;;0.10;;
43146;SDS011;28752;48.266;7.402;2023-05-10T12:30:13;0.43;;;0.20;;
43146;SDS011;28752;48.266;7.402;2023-05-10T12:32:45;0.32;;;0.20;;
43146;SDS011;28752;48.266;7.402;2023-05-10T12:35:10;0.27;;;0.10;;
43146;SDS011;28752;48.266;7.402;2023-05-10T12:37:35;2.30;;;0.30;;
43146;SDS011;28752;48.266;7.402;2023-05-10T12:40:08;0.93;;;0.20;;
43146;SDS011;28752;48.266;7.402;2023-05-10T12:42:35;0.47;;;0.20;;
43146;SDS011;28752;48.266;7.402;2023-05-10T12:45:01;0.60;;;0.43;;
43146;SDS011;28752;48.266;7.402;2023-05-10T12:47:27;0.40;;;0.20;;
43146;SDS011;28752;48.266;7.402;2023-05-10T12:49:53;0.40;;;0.20;;
43146;SDS011;28752;48.266;7.402;2023-05-10T12:52:18;0.50;;;0.20;;
43146;SDS011;28752;48.266;7.402;2023-05-10T12:54:43;0.20;;;0.20;;
43146;SDS011;28752;48.266;7.402;2023-05-10T12:57:09;0.20;;;0.13;;
43146;SDS011;28752;48.266;7.402;2023-05-10T12:59:35;1.23;;;0.20;;
43146;SDS011;28752;48.266;7.402;2023-05-10T13:02:00;0.88;;;0.10;;
43146;SDS011;28752;48.266;7.402;2023-05-10T13:04:26;0.10;;;0.10;;
43146;SDS011;28752;48.266;7.402;2023-05-10T13:06:51;0.30;;;0.25;;
43146;SDS011;28752;48.266;7.402;2023-05-10T13:09:16;0.10;;;0.10;;
43146;SDS011;28752;48.266;7.402;2023-05-10T13:11:42;0.83;;;0.30;;
43146;SDS011;28752;48.266;7.402;2023-05-10T13:14:07;0.30;;;0.10;;
43146;SDS011;28752;48.266;7.402;2023-05-10T13:16:32;0.27;;;0.20;;
43146;SDS011;28752;48.266;7.402;2023-05-10T13:18:58;0.27;;;0.10;;
43146;SDS011;28752;48.266;7.402;2023-05-10T13:21:23;0.45;;;0.20;;
43146;SDS011;28752;48.266;7.402;2023-05-10T13:23:50;0.43;;;0.10;;
43146;SDS011;28752;48.266;7.402;2023-05-10T13:26:15;0.30;;;0.20;;
43146;SDS011;28752;48.266;7.402;2023-05-10T13:28:41;0.52;;;0.15;;
43146;SDS011;28752;48.266;7.402;2023-05-10T13:31:06;0.55;;;0.20;;
43146;SDS011;28752;48.266;7.402;2023-05-10T13:33:32;0.30;;;0.10;;
43146;SDS011;28752;48.266;7.402;2023-05-10T13:35:57;0.00;;;0.00;;
43146;SDS011;28752;48.266;7.402;2023-05-10T13:38:22;0.07;;;0.07;;
43146;SDS011;28752;48.266;7.402;2023-05-10T13:40:48;0.50;;;0.20;;
43146;SDS011;28752;48.266;7.402;2023-05-10T13:43:17;0.25;;;0.10;;
43146;SDS011;28752;48.266;7.402;2023-05-10T13:45:42;0.30;;;0.00;;
43146;SDS011;28752;48.266;7.402;2023-05-10T13:48:08;0.30;;;0.10;;
43146;SDS011;28752;48.266;7.402;2023-05-10T13:50:33;0.27;;;0.17;;
43146;SDS011;28752;48.266;7.402;2023-05-10T13:52:58;0.10;;;0.10;;
43146;SDS011;28752;48.266;7.402;2023-05-10T13:55:24;0.95;;;0.20;;
43146;SDS011;28752;48.266;7.402;2023-05-10T13:57:49;1.27;;;0.60;;
43146;SDS011;28752;48.266;7.402;2023-05-10T14:00:15;0.15;;;0.15;;
43146;SDS011;28752;48.266;7.402;2023-05-10T14:02:41;0.28;;;0.20;;
43146;SDS011;28752;48.266;7.402;2023-05-10T14:05:07;0.10;;;0.08;;
43146;SDS011;28752;48.266;7.402;2023-05-10T14:07:32;0.45;;;0.20;;
43146;SDS011;28752;48.266;7.402;2023-05-10T14:09:58;0.52;;;0.10;;
43146;SDS011;28752;48.266;7.402;2023-05-10T14:12:23;1.08;;;0.10;;
43146;SDS011;28752;48.266;7.402;2023-05-10T14:14:49;1.50;;;0.27;;
43146;SDS011;28752;48.266;7.402;2023-05-10T14:17:14;0.45;;;0.20;;
43146;SDS011;28752;48.266;7.402;2023-05-10T14:19:39;0.08;;;0.08;;
43146;SDS011;28752;48.266;7.402;2023-05-10T14:22:05;0.50;;;0.10;;
43146;SDS011;28752;48.266;7.402;2023-05-10T14:24:30;0.50;;;0.10;;
43146;SDS011;28752;48.266;7.402;2023-05-10T14:26:56;0.25;;;0.10;;
43146;SDS011;28752;48.266;7.402;2023-05-10T14:29:22;0.10;;;0.10;;
43146;SDS011;28752;48.266;7.402;2023-05-10T14:31:47;0.08;;;0.05;;
43146;SDS011;28752;48.266;7.402;2023-05-10T14:34:12;0.10;;;0.10;;
43146;SDS011;28752;48.266;7.402;2023-05-10T14:36:38;0.20;;;0.10;;
43146;SDS011;28752;48.266;7.402;2023-05-10T14:39:04;0.68;;;0.20;;
43146;SDS011;28752;48.266;7.402;2023-05-10T14:41:29;0.63;;;0.20;;
43146;SDS011;28752;48.266;7.402;2023-05-10T14:43:55;0.10;;;0.10;;
43146;SDS011;28752;48.266;7.402;2023-05-10T14:46:20;0.10;;;0.10;;
43146;SDS011;28752;48.266;7.402;2023-05-10T14:48:46;0.10;;;0.10;;
43146;SDS011;28752;48.266;7.402;2023-05-10T14:51:11;0.40;;;0.10;;
43146;SDS011;28752;48.266;7.402;2023-05-10T14:53:37;1.50;;;0.30;;
43146;SDS011;28752;48.266;7.402;2023-05-10T14:56:02;0.20;;;0.20;;
43146;SDS011;28752;48.266;7.402;2023-05-10T14:58:28;0.32;;;0.22;;
43146;SDS011;28752;48.266;7.402;2023-05-10T15:00:53;0.38;;;0.20;;
43146;SDS011;28752;48.266;7.402;2023-05-10T15:03:18;0.40;;;0.10;;
43146;SDS011;28752;48.266;7.402;2023-05-10T15:05:44;1.00;;;0.10;;
43146;SDS011;28752;48.266;7.402;2023-05-10T15:08:09;0.77;;;0.17;;
43146;SDS011;28752;48.266;7.402;2023-05-10T15:10:35;0.20;;;0.20;;
43146;SDS011;28752;48.266;7.402;2023-05-10T15:13:03;1.75;;;0.10;;
43146;SDS011;28752;48.266;7.402;2023-05-10T15:15:29;0.40;;;0.13;;
43146;SDS011;28752;48.266;7.402;2023-05-10T15:17:54;0.13;;;0.10;;
43146;SDS011;28752;48.266;7.402;2023-05-10T15:20:19;0.93;;;0.10;;
43146;SDS011;28752;48.266;7.402;2023-05-10T15:22:45;0.50;;;0.20;;
43146;SDS011;28752;48.266;7.402;2023-05-10T15:25:10;0.10;;;0.10;;
43146;SDS011;28752;48.266;7.402;2023-05-10T15:27:36;0.93;;;0.43;;
43146;SDS011;28752;48.266;7.402;2023-05-10T15:30:01;1.03;;;0.10;;
43146;SDS011;28752;48.266;7.402;2023-05-10T15:32:26;0.50;;;0.20;;
43146;SDS011;28752;48.266;7.402;2023-05-10T15:34:54;0.43;;;0.10;;
43146;SDS011;28752;48.266;7.402;2023-05-10T15:37:19;0.32;;;0.10;;
43146;SDS011;28752;48.266;7.402;2023-05-10T15:39:45;0.07;;;0.07;;
43146;SDS011;28752;48.266;7.402;2023-05-10T15:42:11;0.30;;;0.20;;
43146;SDS011;28752;48.266;7.402;2023-05-10T15:44:37;0.10;;;0.10;;
43146;SDS011;28752;48.266;7.402;2023-05-10T15:49:29;0.45;;;0.17;;
43146;SDS011;28752;48.266;7.402;2023-05-10T15:51:54;0.10;;;0.10;;
43146;SDS011;28752;48.266;7.402;2023-05-10T15:54:19;0.00;;;0.00;;
43146;SDS011;28752;48.266;7.402;2023-05-10T15:56:45;0.10;;;0.10;;
43146;SDS011;28752;48.266;7.402;2023-05-10T15:59:10;0.10;;;0.10;;
43146;SDS011;28752;48.266;7.402;2023-05-10T16:01:35;0.40;;;0.20;;
43146;SDS011;28752;48.266;7.402;2023-05-10T16:04:01;1.17;;;0.10;;
43146;SDS011;28752;48.266;7.402;2023-05-10T16:06:27;1.55;;;0.10;;
43146;SDS011;28752;48.266;7.402;2023-05-10T16:08:52;0.57;;;0.15;;